Time;durP1;ratioP1;P1;durP2;ratioP2;P2;SDS_P1;SDS_P2;PMS_P1;PMS_P2;Temp;Humidity;BMP_temperature;BMP_pressure;BME280_temperature;BME280_humidity;BME280_pressure;Samples;Min_cycle;Max_cycle;Signal;HPM_P1;HPM_P2
2021/10/10 00:00:16;;;;;;;103.25;49.25;;;;;;;;;;5064274;28;20131;-68
2021/10/10 00:02:43;;;;;;;103.18;50.50;;;;;;;;;;5064027;28;20131;-67
2021/10/10 00:05:10;;;;;;;110.88;51.05;;;;;;;;;;5064511;28;20155;-67
2021/10/10 00:07:36;;;;;;;104.05;49.75;;;;;;;;;;5063353;28;20135;-67
2021/10/10 00:10:03;;;;;;;112.38;51.95;;;;;;;;;;5061011;28;20141;-67
2021/10/10 00:12:29;;;;;;;105.60;51.27;;;;;;;;;;5056344;28;20528;-67
2021/10/10 00:14:56;;;;;;;112.00;52.75;;;;;;;;;;5063156;28;20474;-67
2021/10/10 00:17:23;;;;;;;117.77;50.93;;;;;;;;;;5060085;28;20132;-67
2021/10/10 00:19:49;;;;;;;108.90;50.20;;;;;;;;;;5065358;28;20048;-67
2021/10/10 00:22:16;;;;;;;113.97;51.80;;;;;;;;;;5060502;28;20132;-68
2021/10/10 00:24:42;;;;;;;110.63;49.67;;;;;;;;;;5055096;28;20048;-67
2021/10/10 00:27:09;;;;;;;115.70;53.60;;;;;;;;;;5063757;28;20598;-67
2021/10/10 00:29:35;;;;;;;112.10;50.47;;;;;;;;;;5064982;28;20085;-67
2021/10/10 00:32:02;;;;;;;127.03;54.20;;;;;;;;;;5061996;28;20151;-67
2021/10/10 00:34:28;;;;;;;109.23;48.53;;;;;;;;;;5057784;28;20135;-68
2021/10/10 00:36:55;;;;;;;130.63;53.60;;;;;;;;;;5065802;28;20520;-68
2021/10/10 00:39:21;;;;;;;118.32;53.33;;;;;;;;;;5059410;28;20083;-67
2021/10/10 00:41:48;;;;;;;126.80;55.50;;;;;;;;;;5066339;28;20098;-67
2021/10/10 00:44:14;;;;;;;137.70;55.08;;;;;;;;;;5067722;28;20045;-67
2021/10/10 00:46:41;;;;;;;139.75;55.38;;;;;;;;;;5063136;28;20138;-67
2021/10/10 00:49:07;;;;;;;138.65;54.67;;;;;;;;;;5058181;28;20052;-68
2021/10/10 00:51:35;;;;;;;160.27;60.03;;;;;;;;;;5061491;28;20123;-67
2021/10/10 00:54:01;;;;;;;;;;;;;;;;;;5062453;28;20135;-67
2021/10/10 00:56:28;;;;;;;141.98;57.35;;;;;;;;;;5062505;28;19925;-67
2021/10/10 00:58:55;;;;;;;138.52;57.80;;;;;;;;;;5064769;28;20117;-67
2021/10/10 01:01:22;;;;;;;149.37;59.53;;;;;;;;;;5065988;28;20132;-67
2021/10/10 01:03:48;;;;;;;154.52;60.53;;;;;;;;;;5059191;28;20501;-68
2021/10/10 01:06:15;;;;;;;140.02;58.17;;;;;;;;;;5059189;28;20491;-68
2021/10/10 01:08:42;;;;;;;167.13;61.47;;;;;;;;;;5063625;28;20533;-68
2021/10/10 01:11:09;;;;;;;171.13;62.95;;;;;;;;;;5060552;28;20076;-68
2021/10/10 01:13:36;;;;;;;152.95;60.17;;;;;;;;;;5062863;28;20479;-68
2021/10/10 01:16:03;;;;;;;160.73;62.88;;;;;;;;;;5065150;28;20048;-67
2021/10/10 01:18:30;;;;;;;153.73;61.30;;;;;;;;;;5055080;28;20041;-68
2021/10/10 01:20:57;;;;;;;170.07;63.08;;;;;;;;;;5037347;28;20045;-68
2021/10/10 01:23:23;;;;;;;168.07;63.22;;;;;;;;;;5049574;28;20124;-68
2021/10/10 01:25:51;;;;;;;153.15;60.67;;;;;;;;;;5049710;28;20140;-68
2021/10/10 01:28:17;;;;;;;164.52;63.42;;;;;;;;;;5054213;28;20467;-67
2021/10/10 01:30:44;;;;;;;167.90;65.63;;;;;;;;;;5049349;28;20132;-68
2021/10/10 01:33:12;;;;;;;163.25;61.30;;;;;;;;;;5045815;28;20136;-68
2021/10/10 01:35:39;;;;;;;173.25;65.50;;;;;;;;;;5050270;28;20149;-68
2021/10/10 01:38:06;;;;;;;175.23;65.10;;;;;;;;;;5043928;28;20132;-68
2021/10/10 01:40:34;;;;;;;198.18;68.20;;;;;;;;;;5052363;28;20056;-68
2021/10/10 01:43:04;;;;;;;177.02;65.30;;;;;;;;;;5047271;28;20570;-68
2021/10/10 01:45:34;;;;;;;183.10;66.63;;;;;;;;;;5040305;28;20052;-68
2021/10/10 01:48:00;;;;;;;171.50;66.80;;;;;;;;;;5044489;28;20138;-68
2021/10/10 01:50:26;;;;;;;193.05;69.32;;;;;;;;;;5046893;28;20136;-68
2021/10/10 01:52:53;;;;;;;199.27;69.10;;;;;;;;;;5043706;28;20611;-68
2021/10/10 01:55:20;;;;;;;190.50;68.00;;;;;;;;;;5051804;28;20093;-68
2021/10/10 01:57:46;;;;;;;185.15;68.80;;;;;;;;;;5036962;28;20465;-68
2021/10/10 02:00:13;;;;;;;188.50;68.80;;;;;;;;;;5043524;28;20084;-68
2021/10/10 02:02:40;;;;;;;197.48;67.50;;;;;;;;;;5052650;28;20045;-68
2021/10/10 02:05:07;;;;;;;181.93;66.50;;;;;;;;;;5047049;28;20085;-68
2021/10/10 02:07:34;;;;;;;208.73;68.53;;;;;;;;;;5049846;28;20081;-68
2021/10/10 02:10:01;;;;;;;198.97;69.40;;;;;;;;;;5045973;28;20073;-68
2021/10/10 02:12:27;;;;;;;198.77;69.30;;;;;;;;;;5049972;28;20814;-68
2021/10/10 02:14:55;;;;;;;196.80;70.35;;;;;;;;;;5049814;28;20136;-68
2021/10/10 02:17:22;;;;;;;160.48;62.92;;;;;;;;;;5061383;28;20576;-68
2021/10/10 02:19:48;;;;;;;196.55;66.97;;;;;;;;;;5067876;28;20159;-68
2021/10/10 02:22:15;;;;;;;175.63;63.45;;;;;;;;;;5070859;28;20056;-68
2021/10/10 02:24:41;;;;;;;179.73;64.57;;;;;;;;;;5069884;28;20551;-68
2021/10/10 02:27:07;;;;;;;179.32;66.30;;;;;;;;;;5067189;28;20511;-68
2021/10/10 02:29:34;;;;;;;176.57;63.50;;;;;;;;;;5066734;28;20467;-68
2021/10/10 02:32:01;;;;;;;187.65;64.57;;;;;;;;;;5067284;28;20079;-68
2021/10/10 02:34:27;;;;;;;193.50;66.57;;;;;;;;;;5065008;28;20524;-68
2021/10/10 02:36:54;;;;;;;180.65;65.25;;;;;;;;;;5065505;28;20140;-68
2021/10/10 02:39:20;;;;;;;185.70;63.78;;;;;;;;;;5062357;28;20080;-68
2021/10/10 02:41:47;;;;;;;172.63;64.03;;;;;;;;;;5068081;28;20045;-68
2021/10/10 02:44:14;;;;;;;174.68;64.05;;;;;;;;;;5063665;28;20327;-68
2021/10/10 02:46:40;;;;;;;175.07;63.75;;;;;;;;;;5066743;28;20466;-68
2021/10/10 02:49:07;;;;;;;176.25;63.03;;;;;;;;;;5067133;28;20045;-68
2021/10/10 02:51:33;;;;;;;184.38;64.65;;;;;;;;;;5062194;28;20135;-68
2021/10/10 02:54:00;;;;;;;169.68;62.03;;;;;;;;;;5068334;28;20147;-68
2021/10/10 02:56:26;;;;;;;191.23;64.80;;;;;;;;;;5065922;28;20496;-68
2021/10/10 02:58:53;;;;;;;178.32;65.05;;;;;;;;;;5066872;28;20091;-68
2021/10/10 03:01:19;;;;;;;179.93;64.13;;;;;;;;;;5067954;28;20052;-68
2021/10/10 03:03:46;;;;;;;190.83;65.77;;;;;;;;;;5064851;28;20052;-68
2021/10/10 03:06:12;;;;;;;178.32;66.57;;;;;;;;;;5067791;28;20132;-68
2021/10/10 03:08:39;;;;;;;196.85;66.88;;;;;;;;;;5064898;28;20091;-67
2021/10/10 03:11:09;;;;;;;197.05;67.18;;;;;;;;;;5061018;28;20508;-68
2021/10/10 03:13:36;;;;;;;;;;;;;;;;;;5064074;28;20098;-68
2021/10/10 03:16:02;;;;;;;195.60;64.05;;;;;;;;;;5063101;28;19975;-67
2021/10/10 03:18:29;;;;;;;192.18;65.53;;;;;;;;;;5039468;28;20132;-68
2021/10/10 03:20:55;;;;;;;199.07;69.03;;;;;;;;;;5046221;28;20052;-68
2021/10/10 03:23:22;;;;;;;205.27;69.20;;;;;;;;;;5048461;28;20077;-68
2021/10/10 03:25:48;;;;;;;189.07;65.55;;;;;;;;;;5047784;28;20143;-68
2021/10/10 03:28:15;;;;;;;192.47;67.37;;;;;;;;;;5047939;28;20129;-68
2021/10/10 03:30:41;;;;;;;193.10;67.60;;;;;;;;;;5046217;28;20291;-68
2021/10/10 03:33:08;;;;;;;204.95;69.60;;;;;;;;;;5044237;28;20139;-68
2021/10/10 03:35:35;;;;;;;203.75;67.75;;;;;;;;;;5046085;28;20041;-68
2021/10/10 03:38:02;;;;;;;207.82;69.07;;;;;;;;;;5043231;28;20055;-68
2021/10/10 03:40:31;;;;;;;193.38;66.78;;;;;;;;;;5034498;28;20426;-69
2021/10/10 03:42:57;;;;;;;199.40;68.90;;;;;;;;;;5040922;28;20121;-68
2021/10/10 03:45:24;;;;;;;226.65;69.82;;;;;;;;;;5041629;28;20136;-68
2021/10/10 03:47:50;;;;;;;191.93;67.97;;;;;;;;;;5041209;28;20092;-68
2021/10/10 03:50:17;;;;;;;199.13;69.63;;;;;;;;;;5040885;28;20482;-68
2021/10/10 03:52:43;;;;;;;182.85;66.75;;;;;;;;;;5043261;28;20123;-67
2021/10/10 03:57:36;;;;;;;156.90;58.83;;;;;;;;;;5042769;28;20112;-68
2021/10/10 04:00:07;;;;;;;209.93;67.00;;;;;;;;;;5045986;28;20053;-68
2021/10/10 04:02:33;;;;;;;208.07;69.30;;;;;;;;;;5037146;28;20079;-68
2021/10/10 04:05:02;;;;;;;200.70;68.53;;;;;;;;;;5044247;28;20049;-68
2021/10/10 04:07:29;;;;;;;205.15;67.65;;;;;;;;;;5042212;28;20088;-68
2021/10/10 04:09:55;;;;;;;208.77;68.63;;;;;;;;;;5041207;28;20120;-68
2021/10/10 04:12:22;;;;;;;206.13;67.90;;;;;;;;;;5042946;28;20133;-68
2021/10/10 04:14:48;;;;;;;175.23;64.35;;;;;;;;;;5044443;28;20076;-68
2021/10/10 04:17:15;;;;;;;218.90;71.30;;;;;;;;;;5054731;28;20054;-68
2021/10/10 04:19:41;;;;;;;171.27;63.95;;;;;;;;;;5061968;28;20139;-68
2021/10/10 04:22:08;;;;;;;190.47;68.50;;;;;;;;;;5058241;28;20088;-68
2021/10/10 04:24:34;;;;;;;193.50;67.07;;;;;;;;;;5062385;28;20138;-68
2021/10/10 04:27:01;;;;;;;184.43;68.07;;;;;;;;;;5061774;28;20175;-68
2021/10/10 04:29:27;;;;;;;197.77;67.15;;;;;;;;;;5063314;28;20341;-68
2021/10/10 04:31:54;;;;;;;180.80;67.78;;;;;;;;;;5061937;28;20127;-68
2021/10/10 04:34:21;;;;;;;198.15;68.07;;;;;;;;;;5062018;28;20068;-68
2021/10/10 04:36:47;;;;;;;194.65;68.88;;;;;;;;;;5062998;28;20051;-68
2021/10/10 04:39:13;;;;;;;179.07;69.38;;;;;;;;;;5064197;28;20537;-68
2021/10/10 04:41:40;;;;;;;186.60;67.37;;;;;;;;;;5063892;28;20685;-68
2021/10/10 04:44:06;;;;;;;202.38;68.97;;;;;;;;;;5062514;28;20055;-68
2021/10/10 04:46:33;;;;;;;194.65;68.13;;;;;;;;;;5063128;28;20446;-68
2021/10/10 04:48:59;;;;;;;190.53;67.90;;;;;;;;;;5060549;28;20048;-68
2021/10/10 04:51:26;;;;;;;190.93;68.63;;;;;;;;;;5063536;28;20044;-68
2021/10/10 04:53:52;;;;;;;180.95;67.60;;;;;;;;;;5058730;28;20091;-68
2021/10/10 04:56:19;;;;;;;179.10;67.00;;;;;;;;;;5068056;28;20140;-68
2021/10/10 04:58:46;;;;;;;172.35;63.28;;;;;;;;;;5061612;28;20128;-68
2021/10/10 05:01:12;;;;;;;184.80;65.80;;;;;;;;;;5060093;28;20539;-68
2021/10/10 05:03:39;;;;;;;178.55;67.90;;;;;;;;;;5059133;28;20060;-68
2021/10/10 05:06:05;;;;;;;175.15;66.78;;;;;;;;;;5065158;28;20291;-68
2021/10/10 05:08:32;;;;;;;187.45;67.20;;;;;;;;;;5047232;28;20572;-68
2021/10/10 05:10:59;;;;;;;177.27;64.25;;;;;;;;;;5060870;28;20325;-68
2021/10/10 05:13:25;;;;;;;159.20;61.78;;;;;;;;;;5061956;28;20178;-68
2021/10/10 05:15:52;;;;;;;179.77;65.30;;;;;;;;;;5064369;28;20120;-68
2021/10/10 05:18:18;;;;;;;173.25;64.00;;;;;;;;;;5065815;28;20060;-68
2021/10/10 05:20:45;;;;;;;165.48;60.83;;;;;;;;;;5062495;28;20079;-68
2021/10/10 05:23:14;;;;;;;155.18;62.15;;;;;;;;;;5061240;28;20504;-68
2021/10/10 05:25:41;;;;;;;143.55;58.30;;;;;;;;;;5066173;28;20080;-68
2021/10/10 05:28:08;;;;;;;150.90;58.93;;;;;;;;;;5065062;28;20072;-68
2021/10/10 05:30:34;;;;;;;153.65;56.75;;;;;;;;;;5060880;28;20291;-67
2021/10/10 05:33:01;;;;;;;138.27;55.17;;;;;;;;;;5062243;28;20159;-68
2021/10/10 05:35:31;;;;;;;144.15;58.20;;;;;;;;;;5061599;28;20766;-68
2021/10/10 05:37:58;;;;;;;134.75;57.70;;;;;;;;;;5061629;28;20443;-68
2021/10/10 05:40:25;;;;;;;152.38;58.90;;;;;;;;;;5063372;28;20124;-67
2021/10/10 05:42:51;;;;;;;131.38;56.03;;;;;;;;;;5067992;28;20075;-68
2021/10/10 05:45:17;;;;;;;130.98;56.63;;;;;;;;;;5063761;28;20508;-68
2021/10/10 05:47:44;;;;;;;125.57;53.85;;;;;;;;;;5062887;28;20086;-68
2021/10/10 05:50:11;;;;;;;141.60;56.28;;;;;;;;;;5065032;28;20072;-68
2021/10/10 05:52:37;;;;;;;123.35;55.25;;;;;;;;;;5060453;28;20140;-68
2021/10/10 05:55:08;;;;;;;115.20;50.97;;;;;;;;;;5060467;28;20128;-68
2021/10/10 05:57:47;;;;;;;100.43;47.25;;;;;;;;;;5061470;28;20385;-68
2021/10/10 06:00:15;;;;;;;110.32;48.33;;;;;;;;;;5062685;28;20132;-68
2021/10/10 06:02:42;;;;;;;116.50;49.28;;;;;;;;;;5067137;28;20076;-68
2021/10/10 06:05:10;;;;;;;105.00;47.03;;;;;;;;;;5069773;28;20048;-67
2021/10/10 06:07:37;;;;;;;103.97;47.63;;;;;;;;;;5067931;28;20502;-67
2021/10/10 06:10:04;;;;;;;98.43;46.38;;;;;;;;;;5064174;28;20083;-68
2021/10/10 06:12:31;;;;;;;94.00;45.03;;;;;;;;;;5056698;28;20045;-68
2021/10/10 06:14:59;;;;;;;106.40;46.97;;;;;;;;;;5064590;28;20051;-68
2021/10/10 06:17:25;;;;;;;88.72;43.00;;;;;;;;;;5067679;28;20141;-68
2021/10/10 06:19:52;;;;;;;94.50;42.80;;;;;;;;;;5068870;28;20128;-68
2021/10/10 06:22:18;;;;;;;79.07;39.83;;;;;;;;;;5063236;28;20844;-68
2021/10/10 06:24:45;;;;;;;82.00;38.65;;;;;;;;;;5068659;28;20128;-68
2021/10/10 06:27:11;;;;;;;68.88;38.45;;;;;;;;;;5066410;28;20136;-68
2021/10/10 06:29:38;;;;;;;82.05;37.80;;;;;;;;;;5063786;28;20049;-68
2021/10/10 06:32:05;;;;;;;70.22;35.13;;;;;;;;;;5065517;28;20092;-68
2021/10/10 06:34:31;;;;;;;76.68;37.50;;;;;;;;;;5068318;28;20048;-68
2021/10/10 06:36:58;;;;;;;63.10;35.72;;;;;;;;;;5060316;28;20184;-68
2021/10/10 06:39:24;;;;;;;65.72;35.22;;;;;;;;;;5060993;28;20457;-68
2021/10/10 06:41:50;;;;;;;73.65;35.40;;;;;;;;;;5061786;28;20993;-68
2021/10/10 06:44:17;;;;;;;65.88;33.83;;;;;;;;;;5060073;28;20079;-67
2021/10/10 06:46:44;;;;;;;65.25;33.65;;;;;;;;;;5068380;28;20480;-68
2021/10/10 06:49:14;;;;;;;62.25;33.83;;;;;;;;;;5064008;28;20052;-68
2021/10/10 06:51:41;;;;;;;58.38;31.60;;;;;;;;;;5069266;28;20444;-68
2021/10/10 06:54:07;;;;;;;57.65;32.15;;;;;;;;;;5065372;28;20136;-68
2021/10/10 06:56:34;;;;;;;64.32;30.70;;;;;;;;;;5063473;28;20483;-68
2021/10/10 06:59:01;;;;;;;58.30;28.73;;;;;;;;;;5064079;28;20147;-68
2021/10/10 07:01:27;;;;;;;56.58;29.17;;;;;;;;;;5063790;28;20045;-68
2021/10/10 07:03:55;;;;;;;51.75;26.75;;;;;;;;;;5062610;28;20044;-68
2021/10/10 07:06:21;;;;;;;45.83;25.98;;;;;;;;;;5062080;28;20072;-67
2021/10/10 07:08:48;;;;;;;45.70;24.80;;;;;;;;;;5062289;28;20553;-68
2021/10/10 07:11:14;;;;;;;47.50;24.27;;;;;;;;;;5061255;28;20136;-68
2021/10/10 07:13:41;;;;;;;40.13;23.08;;;;;;;;;;5064349;28;20150;-68
2021/10/10 07:16:11;;;;;;;56.10;28.98;;;;;;;;;;5064794;28;20127;-67
2021/10/10 07:18:48;;;;;;;39.20;23.75;;;;;;;;;;5063332;28;20044;-67
2021/10/10 07:26:47;;;;;;;40.75;20.92;;;;;;;;;;5032322;28;20072;-68
2021/10/10 07:29:13;;;;;;;44.33;21.88;;;;;;;;;;5057734;28;20045;-68
2021/10/10 07:31:39;;;;;;;36.05;20.38;;;;;;;;;;5056977;28;20492;-68
2021/10/10 07:34:06;;;;;;;41.40;21.40;;;;;;;;;;5072363;28;20131;-68
2021/10/10 07:36:33;;;;;;;33.20;19.88;;;;;;;;;;5064500;28;20083;-68
2021/10/10 07:39:00;;;;;;;40.47;19.53;;;;;;;;;;5060802;28;20160;-68
2021/10/10 07:41:26;;;;;;;36.97;18.83;;;;;;;;;;5072981;28;20720;-68
2021/10/10 07:43:53;;;;;;;38.00;18.98;;;;;;;;;;5060548;28;20140;-68
2021/10/10 07:46:32;;;;;;;39.25;17.90;;;;;;;;;;5066859;28;20080;-68
2021/10/10 07:48:59;;;;;;;34.42;18.88;;;;;;;;;;5061370;28;20083;-68
2021/10/10 07:51:28;;;;;;;30.83;18.55;;;;;;;;;;5058047;28;20135;-68
2021/10/10 07:53:54;;;;;;;33.92;17.98;;;;;;;;;;5056766;28;20049;-68
2021/10/10 07:56:21;;;;;;;31.55;17.50;;;;;;;;;;5062116;28;20055;-68
2021/10/10 07:58:47;;;;;;;35.13;18.92;;;;;;;;;;5062450;28;20131;-68
2021/10/10 08:01:14;;;;;;;30.45;16.80;;;;;;;;;;5061301;28;20076;-68
2021/10/10 08:03:41;;;;;;;30.20;15.45;;;;;;;;;;5065034;28;20047;-68
2021/10/10 08:06:09;;;;;;;34.05;16.38;;;;;;;;;;5062937;28;20104;-68
2021/10/10 08:08:35;;;;;;;32.40;16.08;;;;;;;;;;5066215;28;20422;-68
2021/10/10 08:11:02;;;;;;;37.08;16.10;;;;;;;;;;5067966;28;20040;-68
2021/10/10 08:13:28;;;;;;;26.30;14.10;;;;;;;;;;5063943;28;20090;-68
2021/10/10 08:15:55;;;;;;;26.30;14.45;;;;;;;;;;5063100;28;20068;-68
2021/10/10 08:18:22;;;;;;;25.20;13.33;;;;;;;;;;5061571;28;20057;-68
2021/10/10 08:20:48;;;;;;;29.30;13.63;;;;;;;;;;5063514;28;20371;-68
2021/10/10 08:23:14;;;;;;;32.72;13.82;;;;;;;;;;5068095;28;20131;-68
2021/10/10 08:25:41;;;;;;;24.88;13.52;;;;;;;;;;5062225;28;20131;-68
2021/10/10 08:28:07;;;;;;;27.00;13.88;;;;;;;;;;5064716;28;20482;-67
2021/10/10 08:30:35;;;;;;;26.15;13.25;;;;;;;;;;5064565;28;20041;-67
2021/10/10 08:33:01;;;;;;;26.27;12.77;;;;;;;;;;5063454;28;20079;-67
2021/10/10 08:35:28;;;;;;;27.88;11.38;;;;;;;;;;5061872;28;20131;-67
2021/10/10 08:37:54;;;;;;;24.92;11.70;;;;;;;;;;5067813;28;20168;-67
2021/10/10 08:40:21;;;;;;;21.27;10.82;;;;;;;;;;5059759;28;20045;-68
2021/10/10 08:42:49;;;;;;;22.80;12.15;;;;;;;;;;5067870;28;20045;-67
2021/10/10 08:45:21;;;;;;;21.30;10.80;;;;;;;;;;5061931;28;20156;-67
2021/10/10 08:47:49;;;;;;;21.83;10.32;;;;;;;;;;5061550;28;20054;-67
2021/10/10 08:50:20;;;;;;;25.48;11.88;;;;;;;;;;5065741;28;20548;-67
2021/10/10 08:52:47;;;;;;;20.17;11.30;;;;;;;;;;5061713;28;20677;-67
2021/10/10 08:55:14;;;;;;;20.85;10.60;;;;;;;;;;5061446;28;20052;-67
2021/10/10 08:57:40;;;;;;;22.02;11.13;;;;;;;;;;5065346;28;20049;-67
2021/10/10 09:00:11;;;;;;;22.30;10.85;;;;;;;;;;5064748;28;20127;-67
2021/10/10 09:02:40;;;;;;;24.20;10.85;;;;;;;;;;5062942;28;20583;-67
2021/10/10 09:05:07;;;;;;;15.30;9.88;;;;;;;;;;5062153;28;20135;-67
2021/10/10 09:07:35;;;;;;;23.95;10.63;;;;;;;;;;5057798;28;20128;-67
2021/10/10 09:10:33;;;;;;;24.65;9.50;;;;;;;;;;5056100;28;20041;-67
2021/10/10 09:13:15;;;;;;;20.77;10.30;;;;;;;;;;5052142;28;20128;-67
2021/10/10 09:15:43;;;;;;;20.05;9.75;;;;;;;;;;5059043;28;20080;-67
2021/10/10 09:18:10;;;;;;;23.45;9.35;;;;;;;;;;5059385;28;20053;-67
2021/10/10 09:20:37;;;;;;;16.25;8.68;;;;;;;;;;5066047;28;20139;-68
2021/10/10 09:23:07;;;;;;;21.13;9.35;;;;;;;;;;5056764;28;20076;-67
2021/10/10 09:25:34;;;;;;;20.60;9.38;;;;;;;;;;5063436;28;20162;-67
2021/10/10 09:28:17;;;;;;;18.10;9.32;;;;;;;;;;5057302;28;20080;-67
2021/10/10 09:30:51;;;;;;;21.85;9.40;;;;;;;;;;5062099;28;20041;-67
2021/10/10 09:33:22;;;;;;;18.55;9.10;;;;;;;;;;5062143;28;20132;-67
2021/10/10 09:36:02;;;;;;;20.38;8.70;;;;;;;;;;5063461;28;20128;-67
2021/10/10 09:38:29;;;;;;;19.60;8.35;;;;;;;;;;5066100;28;20479;-67
2021/10/10 09:41:08;;;;;;;17.98;8.30;;;;;;;;;;5064890;28;20129;-68
2021/10/10 09:43:54;;;;;;;20.65;8.82;;;;;;;;;;5067562;28;20123;-67
2021/10/10 09:46:25;;;;;;;15.82;8.57;;;;;;;;;;5061531;28;20072;-67
2021/10/10 09:48:52;;;;;;;19.60;7.78;;;;;;;;;;5064270;28;20044;-67
2021/10/10 09:51:29;;;;;;;16.05;8.18;;;;;;;;;;5066195;28;20099;-67
2021/10/10 09:53:59;;;;;;;17.48;7.97;;;;;;;;;;5064761;28;20135;-67
2021/10/10 09:56:26;;;;;;;20.38;8.10;;;;;;;;;;5069566;28;20128;-68
2021/10/10 09:58:52;;;;;;;16.25;7.65;;;;;;;;;;5065053;28;20083;-67
2021/10/10 10:01:20;;;;;;;22.50;7.30;;;;;;;;;;5064693;28;20044;-67
2021/10/10 10:03:54;;;;;;;15.38;7.07;;;;;;;;;;5062481;28;20302;-67
2021/10/10 10:06:21;;;;;;;15.13;7.63;;;;;;;;;;5063538;28;20131;-67
2021/10/10 10:08:48;;;;;;;12.55;6.97;;;;;;;;;;5062483;28;20083;-68
2021/10/10 10:11:15;;;;;;;15.90;7.70;;;;;;;;;;5064510;28;20079;-67
2021/10/10 10:13:43;;;;;;;15.32;7.30;;;;;;;;;;5066353;28;20045;-67
2021/10/10 10:16:11;;;;;;;14.52;7.40;;;;;;;;;;5063253;28;20272;-67
2021/10/10 10:18:39;;;;;;;16.98;7.82;;;;;;;;;;5065519;28;20063;-67
2021/10/10 10:21:06;;;;;;;16.52;7.20;;;;;;;;;;5066445;28;20131;-67
2021/10/10 10:23:36;;;;;;;14.70;7.57;;;;;;;;;;5066612;28;20478;-67
2021/10/10 10:26:03;;;;;;;16.70;6.90;;;;;;;;;;5062728;28;20471;-67
2021/10/10 10:28:31;;;;;;;13.27;6.93;;;;;;;;;;5060303;28;20066;-67
2021/10/10 10:30:58;;;;;;;13.75;7.28;;;;;;;;;;5064463;28;20051;-67
2021/10/10 10:33:28;;;;;;;13.82;6.95;;;;;;;;;;5061148;28;21235;-67
2021/10/10 10:35:55;;;;;;;17.65;8.18;;;;;;;;;;5066175;28;20075;-67
2021/10/10 10:38:40;;;;;;;17.83;7.57;;;;;;;;;;5063179;28;20048;-67
2021/10/10 10:41:07;;;;;;;13.80;6.97;;;;;;;;;;5064591;28;20123;-67
2021/10/10 10:43:37;;;;;;;11.45;6.70;;;;;;;;;;5062432;28;20076;-67
2021/10/10 10:46:07;;;;;;;14.82;6.93;;;;;;;;;;5063173;28;20131;-67
2021/10/10 10:48:35;;;;;;;13.27;7.10;;;;;;;;;;5061521;28;20044;-67
2021/10/10 10:51:01;;;;;;;;;;;;;;;;;;5062262;28;20088;-67
2021/10/10 10:53:28;;;;;;;13.45;7.55;;;;;;;;;;5059505;28;20351;-67
2021/10/10 10:55:55;;;;;;;13.75;7.13;;;;;;;;;;5063218;28;20128;-67
2021/10/10 10:58:22;;;;;;;15.60;6.75;;;;;;;;;;5060905;28;20147;-67
2021/10/10 11:00:49;;;;;;;15.30;7.25;;;;;;;;;;5068101;28;20044;-67
2021/10/10 11:03:18;;;;;;;13.75;7.68;;;;;;;;;;5065890;28;20102;-69
2021/10/10 11:05:57;;;;;;;17.10;7.03;;;;;;;;;;5060877;28;20040;-67
2021/10/10 11:08:30;;;;;;;14.40;7.10;;;;;;;;;;5067439;28;20080;-67
2021/10/10 11:10:59;;;;;;;16.27;6.93;;;;;;;;;;5066743;28;20041;-67
2021/10/10 11:13:26;;;;;;;12.55;6.50;;;;;;;;;;5059845;28;20566;-67
2021/10/10 11:15:52;;;;;;;15.68;7.20;;;;;;;;;;5062617;28;20045;-67
2021/10/10 11:18:20;;;;;;;20.45;7.35;;;;;;;;;;5061441;28;20060;-67
2021/10/10 11:20:47;;;;;;;19.50;7.43;;;;;;;;;;5064134;28;20437;-67
2021/10/10 11:23:14;;;;;;;16.60;7.07;;;;;;;;;;5060286;28;20081;-67
2021/10/10 11:25:41;;;;;;;18.00;7.38;;;;;;;;;;5062887;28;20119;-67
2021/10/10 11:28:08;;;;;;;12.85;6.50;;;;;;;;;;5058249;28;20080;-68
2021/10/10 11:30:34;;;;;;;17.67;7.13;;;;;;;;;;5061352;28;20124;-67
2021/10/10 11:33:01;;;;;;;17.77;7.45;;;;;;;;;;5057740;28;20044;-67
2021/10/10 11:35:29;;;;;;;14.55;6.85;;;;;;;;;;5063786;28;20147;-67
2021/10/10 11:37:59;;;;;;;23.15;7.38;;;;;;;;;;5048859;28;20091;-67
2021/10/10 11:40:26;;;;;;;19.50;6.75;;;;;;;;;;5061379;28;20049;-67
2021/10/10 11:42:56;;;;;;;14.75;6.72;;;;;;;;;;5069342;28;20087;-66
2021/10/10 11:45:23;;;;;;;12.95;7.25;;;;;;;;;;5069257;28;20084;-67
2021/10/10 11:47:54;;;;;;;16.95;7.13;;;;;;;;;;5064092;28;20044;-67
2021/10/10 11:50:21;;;;;;;16.50;7.20;;;;;;;;;;5064477;28;20088;-67
2021/10/10 11:55:22;;;;;;;15.40;7.05;;;;;;;;;;5061376;28;20127;-67
2021/10/10 11:57:54;;;;;;;18.48;7.43;;;;;;;;;;5064556;28;20060;-67
2021/10/10 12:00:24;;;;;;;19.55;7.50;;;;;;;;;;5049913;28;20076;-67
2021/10/10 12:02:51;;;;;;;17.25;7.80;;;;;;;;;;5063891;28;20107;-67
2021/10/10 12:05:18;;;;;;;15.45;7.20;;;;;;;;;;5064664;28;20087;-67
2021/10/10 12:07:45;;;;;;;16.40;7.68;;;;;;;;;;5058041;28;20477;-67
2021/10/10 12:10:16;;;;;;;12.18;7.35;;;;;;;;;;5057163;28;20459;-67
2021/10/10 12:12:46;;;;;;;17.35;7.40;;;;;;;;;;5061987;28;20094;-67
2021/10/10 12:15:16;;;;;;;13.57;7.40;;;;;;;;;;5062251;28;20455;-67
2021/10/10 12:17:44;;;;;;;13.35;7.20;;;;;;;;;;5064085;28;20064;-67
2021/10/10 12:20:16;;;;;;;19.45;7.70;;;;;;;;;;5064354;28;20088;-67
2021/10/10 12:22:45;;;;;;;17.10;7.63;;;;;;;;;;5066302;28;20131;-67
2021/10/10 12:25:32;;;;;;;15.40;6.65;;;;;;;;;;5062559;28;20106;-67
2021/10/10 12:27:58;;;;;;;15.48;7.72;;;;;;;;;;5059970;28;20114;-66
2021/10/10 12:30:26;;;;;;;12.88;6.90;;;;;;;;;;5060353;28;20049;-67
2021/10/10 12:32:52;;;;;;;13.00;7.65;;;;;;;;;;5060637;28;20051;-67
2021/10/10 12:35:19;;;;;;;10.73;6.95;;;;;;;;;;5061738;28;20098;-67
2021/10/10 12:37:50;;;;;;;16.63;7.65;;;;;;;;;;5063058;28;20089;-67
2021/10/10 12:40:26;;;;;;;12.75;7.32;;;;;;;;;;5055115;28;20096;-67
2021/10/10 12:42:54;;;;;;;16.35;8.02;;;;;;;;;;5064149;28;20551;-67
2021/10/10 12:45:31;;;;;;;16.27;7.72;;;;;;;;;;5061111;28;20828;-67
2021/10/10 12:47:58;;;;;;;16.23;7.25;;;;;;;;;;5066683;28;20162;-67
2021/10/10 12:50:24;;;;;;;24.35;8.02;;;;;;;;;;5063320;28;20139;-67
2021/10/10 12:52:51;;;;;;;14.15;7.45;;;;;;;;;;5047196;28;20152;-67
2021/10/10 12:55:18;;;;;;;;;;;;;;;;;;5061459;28;20045;-67
2021/10/10 12:57:54;;;;;;;13.52;7.40;;;;;;;;;;5059537;28;19967;-67
2021/10/10 13:00:21;;;;;;;15.82;7.55;;;;;;;;;;5058197;28;20135;-67
2021/10/10 13:02:49;;;;;;;12.57;7.67;;;;;;;;;;5061373;28;20048;-67
2021/10/10 13:05:19;;;;;;;20.88;7.85;;;;;;;;;;5064296;28;20530;-67
2021/10/10 13:07:46;;;;;;;14.57;7.57;;;;;;;;;;5063666;28;20068;-67
2021/10/10 13:10:13;;;;;;;15.88;6.95;;;;;;;;;;5059478;28;20057;-67
2021/10/10 13:12:39;;;;;;;15.70;6.75;;;;;;;;;;5048051;28;20087;-67
2021/10/10 13:15:08;;;;;;;12.73;6.93;;;;;;;;;;5063819;28;20119;-67
2021/10/10 13:17:35;;;;;;;13.93;6.75;;;;;;;;;;5063450;28;20102;-67
2021/10/10 13:20:02;;;;;;;13.57;7.28;;;;;;;;;;5065303;28;20135;-67
2021/10/10 13:22:33;;;;;;;14.68;7.03;;;;;;;;;;5064736;28;20636;-67
2021/10/10 13:25:02;;;;;;;16.20;6.57;;;;;;;;;;5066198;28;20102;-67
2021/10/10 13:27:28;;;;;;;11.45;6.78;;;;;;;;;;5065803;28;20040;-67
2021/10/10 13:29:54;;;;;;;19.35;6.50;;;;;;;;;;5061049;28;20120;-67
2021/10/10 13:32:21;;;;;;;12.55;6.97;;;;;;;;;;5059234;28;20779;-67
2021/10/10 13:34:50;;;;;;;14.35;6.65;;;;;;;;;;5061803;28;20045;-67
2021/10/10 13:37:17;;;;;;;16.83;7.22;;;;;;;;;;5060346;28;20465;-66
2021/10/10 13:39:43;;;;;;;18.25;7.10;;;;;;;;;;5064346;28;20056;-67
2021/10/10 13:42:10;;;;;;;16.80;6.28;;;;;;;;;;5059353;28;20460;-67
2021/10/10 13:44:36;;;;;;;14.38;6.38;;;;;;;;;;5066421;28;20131;-67
2021/10/10 13:47:02;;;;;;;14.90;6.45;;;;;;;;;;5064644;28;20148;-67
2021/10/10 13:49:29;;;;;;;12.35;6.88;;;;;;;;;;5063227;28;20507;-67
2021/10/10 13:51:56;;;;;;;11.13;6.30;;;;;;;;;;5060047;28;20127;-67
2021/10/10 13:54:22;;;;;;;17.83;6.65;;;;;;;;;;5062973;28;20081;-67
2021/10/10 13:56:49;;;;;;;13.77;6.68;;;;;;;;;;5061810;28;20045;-68
2021/10/10 13:59:15;;;;;;;19.42;7.20;;;;;;;;;;5064563;28;20569;-67
2021/10/10 14:01:42;;;;;;;17.42;6.57;;;;;;;;;;5059421;28;20131;-68
2021/10/10 14:04:08;;;;;;;12.65;5.43;;;;;;;;;;5060237;28;20052;-68
2021/10/10 14:06:35;;;;;;;11.60;6.53;;;;;;;;;;5061541;28;20091;-68
2021/10/10 14:09:01;;;;;;;15.00;6.35;;;;;;;;;;5062025;28;20140;-68
2021/10/10 14:11:28;;;;;;;16.25;6.68;;;;;;;;;;5064360;28;20152;-68
2021/10/10 14:13:54;;;;;;;18.88;6.43;;;;;;;;;;5063160;28;20165;-68
2021/10/10 14:16:21;;;;;;;15.48;6.60;;;;;;;;;;5058093;28;20125;-68
2021/10/10 14:18:48;;;;;;;14.80;6.22;;;;;;;;;;5060800;28;20130;-68
2021/10/10 14:21:14;;;;;;;13.88;6.32;;;;;;;;;;5058536;28;20088;-68
2021/10/10 14:23:41;;;;;;;13.88;6.70;;;;;;;;;;5069146;28;20072;-68
2021/10/10 14:26:08;;;;;;;16.75;6.68;;;;;;;;;;5062250;28;20079;-68
2021/10/10 14:28:34;;;;;;;14.45;6.88;;;;;;;;;;5062282;28;20072;-68
2021/10/10 14:31:01;;;;;;;9.55;6.10;;;;;;;;;;5062048;28;20126;-68